Impacts METAR Board
IDs:

KMCO - Orlando Intl, FL, US

Updated at: 1800 UTC 24 Jun 2018
Potential Impact None Slight Moderate High
Time 24/06Z 24/07Z 24/08Z 24/09Z 24/10Z 24/11Z 24/12Z 24/13Z 24/14Z 24/15Z 24/16Z 24/17Z 24/18Z
Temp76 75 76 76 74 75 79 82 85 88 89 92 89
Dewpt74 74 74 74 73 74 74 74 74 77 74 75 74
Altim30.03 30.01 30.01 30.00 30.01 30.03 30.05 30.06 30.06 30.08 30.07 30.05 30.02
VIS10 10 10 10 10 10 10 10 10 10 10 10 10
CIG250 250 250 250 -- -- -- -- -- -- -- -- 40
CoverBKNBKNBKNBKNSCTFEWFEWFEWFEWSCTSCTSCTBKN
FltCatVFRVFRVFRVFRVFRVFRVFRVFRVFRVFRVFRVFRVFR
WX--------------------------
WDir190160250000230031010105030
WSpd4 4 3 0 0 0 4 4 6 6 5 5 3
WGst-- -- -- -- -- -- -- -- -- -- -- -- --
Raw hourly METARs
KMCO 240553Z 19004KT 10SM FEW047 FEW150 BKN250 24/23 A3003 RMK AO2 SLP167 60000 T02440233 10256 20244 58003 $
KMCO 240653Z 16004KT 10SM FEW050 FEW150 BKN250 24/23 A3001 RMK AO2 SLP160 T02390233 $
KMCO 240753Z 25003KT 10SM SCT050 BKN250 24/23 A3001 RMK AO2 SLP159 T02440233 $
KMCO 240853Z 00000KT 10SM BKN250 24/23 A3000 RMK AO2 SLP159 T02440233 56008 $
KMCO 240953Z 00000KT 10SM FEW050 FEW150 SCT250 23/23 A3001 RMK AO2 SLP161 T02330228 $
KMCO 241053Z 00000KT 10SM FEW150 FEW250 24/23 A3003 RMK AO2 SLP168 T02390233 $
KMCO 241153Z 23004KT 10SM FEW250 26/23 A3005 RMK AO2 SLP172 70002 T02610233 10261 20233 53014 $
KMCO 241253Z VRB04KT 10SM FEW025 FEW250 28/23 A3006 RMK AO2 SLP179 TCU DSNT SW T02780233 $
KMCO 241353Z 31006KT 10SM FEW030 FEW250 29/23 A3006 RMK AO2 SLP177 T02940233 $
KMCO 241453Z 01006KT 10SM SCT025 31/25 A3008 RMK AO2 SLP183 T03110250 52010 $
KMCO 241553Z 01005KT 10SM SCT029 32/23 A3007 RMK AO2 SLP182 T03170233 $
KMCO 241653Z 05005KT 10SM SCT035 33/24 A3005 RMK AO2 SLP173 T03330239 $
KMCO 241753Z 03003KT 10SM BKN040 32/23 A3002 RMK AO2 SLP165 T03170233 10333 20261 58018 $



Page loaded:  18:22 UTC  |   11:22 AM Pacific  |   12:22 PM Mountain  |   01:22 PM Central  |   02:22 PM Eastern

 

ADVISORIES

FORECASTS

FORECASTS

OBSERVATIONS

USER TOOLS

ABOUT US